sensor_id;sensor_type;location;lat;lon;timestamp;P1;durP1;ratioP1;P2;durP2;ratioP2
34767;SDS011;21755;43.608;1.236;2023-07-20T00:01:46;21.75;;;6.70;;
34767;SDS011;21755;43.608;1.236;2023-07-20T00:04:13;17.02;;;5.65;;
34767;SDS011;21755;43.608;1.236;2023-07-20T00:06:39;14.30;;;5.45;;
34767;SDS011;21755;43.608;1.236;2023-07-20T00:09:08;15.60;;;5.90;;
34767;SDS011;21755;43.608;1.236;2023-07-20T00:11:37;13.63;;;5.38;;
34767;SDS011;21755;43.608;1.236;2023-07-20T00:14:06;11.88;;;5.28;;
34767;SDS011;21755;43.608;1.236;2023-07-20T00:16:32;12.43;;;5.05;;
34767;SDS011;21755;43.608;1.236;2023-07-20T00:18:58;12.98;;;5.57;;
34767;SDS011;21755;43.608;1.236;2023-07-20T00:21:24;15.93;;;5.40;;
34767;SDS011;21755;43.608;1.236;2023-07-20T00:23:52;14.23;;;5.80;;
34767;SDS011;21755;43.608;1.236;2023-07-20T00:26:18;16.67;;;6.15;;
34767;SDS011;21755;43.608;1.236;2023-07-20T00:28:44;12.23;;;5.65;;
34767;SDS011;21755;43.608;1.236;2023-07-20T00:31:10;12.95;;;5.72;;
34767;SDS011;21755;43.608;1.236;2023-07-20T00:33:36;10.63;;;5.10;;
34767;SDS011;21755;43.608;1.236;2023-07-20T00:36:02;12.70;;;5.35;;
34767;SDS011;21755;43.608;1.236;2023-07-20T00:38:28;18.75;;;5.45;;
34767;SDS011;21755;43.608;1.236;2023-07-20T00:40:54;14.07;;;5.38;;
34767;SDS011;21755;43.608;1.236;2023-07-20T00:43:20;12.52;;;5.25;;
34767;SDS011;21755;43.608;1.236;2023-07-20T00:45:46;7.93;;;4.95;;
34767;SDS011;21755;43.608;1.236;2023-07-20T00:48:12;13.68;;;5.40;;
34767;SDS011;21755;43.608;1.236;2023-07-20T00:50:38;13.88;;;5.97;;
34767;SDS011;21755;43.608;1.236;2023-07-20T00:53:05;17.23;;;5.85;;
34767;SDS011;21755;43.608;1.236;2023-07-20T00:55:32;10.48;;;5.10;;
34767;SDS011;21755;43.608;1.236;2023-07-20T00:57:59;15.10;;;6.07;;
34767;SDS011;21755;43.608;1.236;2023-07-20T01:00:25;11.68;;;5.20;;
34767;SDS011;21755;43.608;1.236;2023-07-20T01:02:52;9.73;;;5.40;;
34767;SDS011;21755;43.608;1.236;2023-07-20T01:05:18;11.60;;;5.15;;
34767;SDS011;21755;43.608;1.236;2023-07-20T01:12:53;11.95;;;5.25;;
34767;SDS011;21755;43.608;1.236;2023-07-20T01:15:20;10.43;;;5.45;;
34767;SDS011;21755;43.608;1.236;2023-07-20T01:17:46;8.27;;;4.72;;
34767;SDS011;21755;43.608;1.236;2023-07-20T01:20:13;9.20;;;5.07;;
34767;SDS011;21755;43.608;1.236;2023-07-20T01:25:34;13.23;;;4.60;;
34767;SDS011;21755;43.608;1.236;2023-07-20T01:31:15;10.15;;;5.80;;
34767;SDS011;21755;43.608;1.236;2023-07-20T01:33:45;8.05;;;5.00;;
34767;SDS011;21755;43.608;1.236;2023-07-20T01:36:12;10.38;;;6.03;;
34767;SDS011;21755;43.608;1.236;2023-07-20T01:38:41;12.00;;;5.30;;
34767;SDS011;21755;43.608;1.236;2023-07-20T01:41:07;10.25;;;4.38;;
34767;SDS011;21755;43.608;1.236;2023-07-20T01:43:34;10.77;;;5.22;;
34767;SDS011;21755;43.608;1.236;2023-07-20T01:46:00;10.70;;;5.43;;
34767;SDS011;21755;43.608;1.236;2023-07-20T01:48:26;13.38;;;5.28;;
34767;SDS011;21755;43.608;1.236;2023-07-20T01:50:52;12.20;;;5.10;;
34767;SDS011;21755;43.608;1.236;2023-07-20T01:53:18;7.10;;;4.50;;
34767;SDS011;21755;43.608;1.236;2023-07-20T01:55:45;8.38;;;4.65;;
34767;SDS011;21755;43.608;1.236;2023-07-20T01:58:11;14.68;;;5.32;;
34767;SDS011;21755;43.608;1.236;2023-07-20T02:00:37;7.18;;;4.78;;
34767;SDS011;21755;43.608;1.236;2023-07-20T02:03:04;13.70;;;5.03;;
34767;SDS011;21755;43.608;1.236;2023-07-20T02:05:30;11.18;;;5.20;;
34767;SDS011;21755;43.608;1.236;2023-07-20T02:07:56;11.75;;;5.10;;
34767;SDS011;21755;43.608;1.236;2023-07-20T02:10:22;9.52;;;4.85;;
34767;SDS011;21755;43.608;1.236;2023-07-20T02:12:48;9.00;;;5.00;;
34767;SDS011;21755;43.608;1.236;2023-07-20T02:15:14;8.23;;;4.60;;
34767;SDS011;21755;43.608;1.236;2023-07-20T02:17:42;10.07;;;5.28;;
34767;SDS011;21755;43.608;1.236;2023-07-20T02:20:08;12.20;;;5.13;;
34767;SDS011;21755;43.608;1.236;2023-07-20T02:22:37;10.65;;;5.10;;
34767;SDS011;21755;43.608;1.236;2023-07-20T02:25:07;7.78;;;4.53;;
34767;SDS011;21755;43.608;1.236;2023-07-20T02:27:36;13.38;;;5.18;;
34767;SDS011;21755;43.608;1.236;2023-07-20T02:30:04;7.97;;;4.72;;
34767;SDS011;21755;43.608;1.236;2023-07-20T02:32:31;9.10;;;4.70;;
34767;SDS011;21755;43.608;1.236;2023-07-20T02:34:57;10.65;;;5.13;;
34767;SDS011;21755;43.608;1.236;2023-07-20T02:37:23;11.25;;;4.60;;
34767;SDS011;21755;43.608;1.236;2023-07-20T02:39:49;6.43;;;4.68;;
34767;SDS011;21755;43.608;1.236;2023-07-20T02:42:16;10.48;;;4.35;;
34767;SDS011;21755;43.608;1.236;2023-07-20T02:44:41;10.27;;;5.18;;
34767;SDS011;21755;43.608;1.236;2023-07-20T02:47:07;7.78;;;4.07;;
34767;SDS011;21755;43.608;1.236;2023-07-20T02:49:34;8.43;;;4.90;;
34767;SDS011;21755;43.608;1.236;2023-07-20T02:52:00;9.43;;;4.22;;
34767;SDS011;21755;43.608;1.236;2023-07-20T02:54:26;8.73;;;4.30;;
34767;SDS011;21755;43.608;1.236;2023-07-20T02:56:53;7.32;;;4.20;;
34767;SDS011;21755;43.608;1.236;2023-07-20T02:59:20;7.13;;;4.60;;
34767;SDS011;21755;43.608;1.236;2023-07-20T03:01:46;10.32;;;4.93;;
34767;SDS011;21755;43.608;1.236;2023-07-20T03:04:11;8.68;;;4.63;;
34767;SDS011;21755;43.608;1.236;2023-07-20T03:06:37;7.60;;;3.92;;
34767;SDS011;21755;43.608;1.236;2023-07-20T03:09:04;8.90;;;5.10;;
34767;SDS011;21755;43.608;1.236;2023-07-20T03:11:32;6.32;;;3.95;;
34767;SDS011;21755;43.608;1.236;2023-07-20T03:13:59;12.43;;;4.50;;
34767;SDS011;21755;43.608;1.236;2023-07-20T03:16:25;12.32;;;4.78;;
34767;SDS011;21755;43.608;1.236;2023-07-20T03:18:51;7.40;;;4.00;;
34767;SDS011;21755;43.608;1.236;2023-07-20T03:21:17;6.60;;;4.40;;
34767;SDS011;21755;43.608;1.236;2023-07-20T03:23:43;7.25;;;4.35;;
34767;SDS011;21755;43.608;1.236;2023-07-20T03:26:09;9.77;;;4.60;;
34767;SDS011;21755;43.608;1.236;2023-07-20T03:28:36;9.90;;;4.22;;
34767;SDS011;21755;43.608;1.236;2023-07-20T03:31:03;7.25;;;4.05;;
34767;SDS011;21755;43.608;1.236;2023-07-20T03:33:29;9.82;;;4.70;;
34767;SDS011;21755;43.608;1.236;2023-07-20T03:35:56;6.88;;;4.35;;
34767;SDS011;21755;43.608;1.236;2023-07-20T03:38:22;9.70;;;4.05;;
34767;SDS011;21755;43.608;1.236;2023-07-20T03:40:49;6.22;;;4.10;;
34767;SDS011;21755;43.608;1.236;2023-07-20T03:43:16;5.93;;;3.85;;
34767;SDS011;21755;43.608;1.236;2023-07-20T03:45:42;6.47;;;3.63;;
34767;SDS011;21755;43.608;1.236;2023-07-20T03:48:09;9.23;;;4.45;;
34767;SDS011;21755;43.608;1.236;2023-07-20T03:50:36;5.85;;;3.90;;
34767;SDS011;21755;43.608;1.236;2023-07-20T03:53:01;6.45;;;4.00;;
34767;SDS011;21755;43.608;1.236;2023-07-20T03:55:27;6.07;;;3.92;;
34767;SDS011;21755;43.608;1.236;2023-07-20T03:57:53;6.53;;;3.70;;
34767;SDS011;21755;43.608;1.236;2023-07-20T04:00:19;8.18;;;3.92;;
34767;SDS011;21755;43.608;1.236;2023-07-20T04:02:46;7.60;;;3.88;;
34767;SDS011;21755;43.608;1.236;2023-07-20T04:05:12;6.32;;;3.90;;
34767;SDS011;21755;43.608;1.236;2023-07-20T04:07:38;5.88;;;3.75;;
34767;SDS011;21755;43.608;1.236;2023-07-20T04:10:04;11.63;;;3.75;;
34767;SDS011;21755;43.608;1.236;2023-07-20T04:12:30;7.82;;;3.70;;
34767;SDS011;21755;43.608;1.236;2023-07-20T04:14:56;9.63;;;3.50;;
34767;SDS011;21755;43.608;1.236;2023-07-20T04:17:22;6.70;;;3.60;;
34767;SDS011;21755;43.608;1.236;2023-07-20T04:19:50;5.68;;;3.47;;
34767;SDS011;21755;43.608;1.236;2023-07-20T04:22:18;6.53;;;3.85;;
34767;SDS011;21755;43.608;1.236;2023-07-20T04:24:45;5.63;;;3.55;;
34767;SDS011;21755;43.608;1.236;2023-07-20T04:27:12;5.30;;;3.60;;
34767;SDS011;21755;43.608;1.236;2023-07-20T04:29:38;10.38;;;3.60;;
34767;SDS011;21755;43.608;1.236;2023-07-20T04:32:04;8.43;;;3.63;;
34767;SDS011;21755;43.608;1.236;2023-07-20T04:34:30;5.00;;;3.42;;
34767;SDS011;21755;43.608;1.236;2023-07-20T04:36:56;7.15;;;3.80;;
34767;SDS011;21755;43.608;1.236;2023-07-20T04:39:22;5.15;;;3.38;;
34767;SDS011;21755;43.608;1.236;2023-07-20T04:41:48;6.13;;;3.53;;
34767;SDS011;21755;43.608;1.236;2023-07-20T04:44:14;5.32;;;3.67;;
34767;SDS011;21755;43.608;1.236;2023-07-20T04:46:40;5.90;;;3.53;;
34767;SDS011;21755;43.608;1.236;2023-07-20T04:49:07;8.23;;;3.80;;
34767;SDS011;21755;43.608;1.236;2023-07-20T04:51:33;6.32;;;3.33;;
34767;SDS011;21755;43.608;1.236;2023-07-20T04:53:58;6.00;;;3.13;;
34767;SDS011;21755;43.608;1.236;2023-07-20T04:56:24;5.95;;;3.67;;
34767;SDS011;21755;43.608;1.236;2023-07-20T04:58:50;7.50;;;3.92;;
34767;SDS011;21755;43.608;1.236;2023-07-20T05:01:16;4.78;;;3.35;;
34767;SDS011;21755;43.608;1.236;2023-07-20T05:03:42;6.18;;;3.80;;
34767;SDS011;21755;43.608;1.236;2023-07-20T05:06:08;7.50;;;3.83;;
34767;SDS011;21755;43.608;1.236;2023-07-20T05:08:34;14.25;;;3.80;;
34767;SDS011;21755;43.608;1.236;2023-07-20T05:11:00;6.25;;;3.13;;
34767;SDS011;21755;43.608;1.236;2023-07-20T05:13:26;10.55;;;3.50;;
34767;SDS011;21755;43.608;1.236;2023-07-20T05:15:52;7.45;;;3.47;;
34767;SDS011;21755;43.608;1.236;2023-07-20T05:18:19;6.53;;;3.60;;
34767;SDS011;21755;43.608;1.236;2023-07-20T05:20:49;8.38;;;3.75;;
34767;SDS011;21755;43.608;1.236;2023-07-20T05:23:18;7.03;;;3.72;;
34767;SDS011;21755;43.608;1.236;2023-07-20T05:25:45;11.52;;;3.90;;
34767;SDS011;21755;43.608;1.236;2023-07-20T05:28:11;5.97;;;3.72;;
34767;SDS011;21755;43.608;1.236;2023-07-20T05:30:37;9.25;;;3.55;;
34767;SDS011;21755;43.608;1.236;2023-07-20T05:33:03;12.23;;;3.80;;
34767;SDS011;21755;43.608;1.236;2023-07-20T05:35:29;12.23;;;4.55;;
34767;SDS011;21755;43.608;1.236;2023-07-20T05:37:55;8.13;;;3.97;;
34767;SDS011;21755;43.608;1.236;2023-07-20T05:40:21;11.35;;;3.85;;
34767;SDS011;21755;43.608;1.236;2023-07-20T05:42:47;8.98;;;3.97;;
34767;SDS011;21755;43.608;1.236;2023-07-20T05:45:17;7.00;;;4.22;;
34767;SDS011;21755;43.608;1.236;2023-07-20T05:47:43;11.20;;;3.97;;
34767;SDS011;21755;43.608;1.236;2023-07-20T05:50:10;8.57;;;3.67;;
34767;SDS011;21755;43.608;1.236;2023-07-20T05:52:36;8.63;;;3.85;;
34767;SDS011;21755;43.608;1.236;2023-07-20T05:55:04;13.02;;;4.32;;
34767;SDS011;21755;43.608;1.236;2023-07-20T05:57:30;8.18;;;3.88;;
34767;SDS011;21755;43.608;1.236;2023-07-20T05:59:56;6.80;;;3.97;;
34767;SDS011;21755;43.608;1.236;2023-07-20T06:02:22;13.35;;;4.13;;
34767;SDS011;21755;43.608;1.236;2023-07-20T06:04:48;10.50;;;4.18;;
34767;SDS011;21755;43.608;1.236;2023-07-20T06:07:14;9.43;;;3.75;;
34767;SDS011;21755;43.608;1.236;2023-07-20T06:09:41;7.05;;;4.05;;
34767;SDS011;21755;43.608;1.236;2023-07-20T06:12:07;8.15;;;4.18;;
34767;SDS011;21755;43.608;1.236;2023-07-20T06:14:33;6.90;;;3.83;;
34767;SDS011;21755;43.608;1.236;2023-07-20T06:17:00;6.82;;;3.42;;
34767;SDS011;21755;43.608;1.236;2023-07-20T06:19:26;5.82;;;3.75;;
34767;SDS011;21755;43.608;1.236;2023-07-20T06:21:52;6.72;;;3.83;;
34767;SDS011;21755;43.608;1.236;2023-07-20T06:24:18;8.15;;;4.10;;
34767;SDS011;21755;43.608;1.236;2023-07-20T06:26:44;11.68;;;3.08;;
34767;SDS011;21755;43.608;1.236;2023-07-20T06:29:10;7.90;;;3.20;;
34767;SDS011;21755;43.608;1.236;2023-07-20T06:31:35;5.70;;;2.83;;
34767;SDS011;21755;43.608;1.236;2023-07-20T06:34:02;5.78;;;2.97;;
34767;SDS011;21755;43.608;1.236;2023-07-20T06:36:28;5.18;;;3.00;;
34767;SDS011;21755;43.608;1.236;2023-07-20T06:38:54;6.88;;;3.05;;
34767;SDS011;21755;43.608;1.236;2023-07-20T06:41:23;5.47;;;3.25;;
34767;SDS011;21755;43.608;1.236;2023-07-20T06:43:49;4.45;;;2.90;;
34767;SDS011;21755;43.608;1.236;2023-07-20T06:46:15;10.60;;;2.67;;
34767;SDS011;21755;43.608;1.236;2023-07-20T06:48:41;7.32;;;3.40;;
34767;SDS011;21755;43.608;1.236;2023-07-20T06:51:07;7.55;;;3.03;;
34767;SDS011;21755;43.608;1.236;2023-07-20T06:53:33;7.15;;;3.22;;
34767;SDS011;21755;43.608;1.236;2023-07-20T06:55:59;4.75;;;3.03;;
34767;SDS011;21755;43.608;1.236;2023-07-20T06:58:25;3.33;;;2.28;;
34767;SDS011;21755;43.608;1.236;2023-07-20T07:00:51;4.80;;;2.90;;
34767;SDS011;21755;43.608;1.236;2023-07-20T07:03:17;6.70;;;2.90;;
34767;SDS011;21755;43.608;1.236;2023-07-20T07:05:44;9.85;;;3.20;;
34767;SDS011;21755;43.608;1.236;2023-07-20T07:08:12;4.22;;;2.63;;
34767;SDS011;21755;43.608;1.236;2023-07-20T07:10:38;4.07;;;2.08;;
34767;SDS011;21755;43.608;1.236;2023-07-20T07:13:04;3.47;;;2.10;;
34767;SDS011;21755;43.608;1.236;2023-07-20T07:15:30;4.70;;;2.17;;
34767;SDS011;21755;43.608;1.236;2023-07-20T07:17:56;5.75;;;2.22;;
34767;SDS011;21755;43.608;1.236;2023-07-20T07:20:22;7.03;;;2.47;;
34767;SDS011;21755;43.608;1.236;2023-07-20T07:22:49;4.18;;;2.13;;
34767;SDS011;21755;43.608;1.236;2023-07-20T07:25:16;5.80;;;2.30;;
34767;SDS011;21755;43.608;1.236;2023-07-20T07:27:42;2.30;;;1.77;;
34767;SDS011;21755;43.608;1.236;2023-07-20T07:30:08;5.53;;;2.50;;
34767;SDS011;21755;43.608;1.236;2023-07-20T07:32:34;3.15;;;2.08;;
34767;SDS011;21755;43.608;1.236;2023-07-20T07:35:00;5.80;;;2.30;;
34767;SDS011;21755;43.608;1.236;2023-07-20T07:37:26;6.00;;;2.33;;
34767;SDS011;21755;43.608;1.236;2023-07-20T07:39:52;6.40;;;2.47;;
34767;SDS011;21755;43.608;1.236;2023-07-20T07:42:18;5.60;;;2.42;;
34767;SDS011;21755;43.608;1.236;2023-07-20T07:44:44;3.67;;;2.20;;
34767;SDS011;21755;43.608;1.236;2023-07-20T07:47:10;6.95;;;2.78;;
34767;SDS011;21755;43.608;1.236;2023-07-20T07:49:37;9.82;;;2.30;;
34767;SDS011;21755;43.608;1.236;2023-07-20T07:52:03;4.05;;;2.05;;
34767;SDS011;21755;43.608;1.236;2023-07-20T07:54:29;5.80;;;2.03;;
34767;SDS011;21755;43.608;1.236;2023-07-20T07:56:56;10.73;;;1.92;;
34767;SDS011;21755;43.608;1.236;2023-07-20T07:59:22;6.95;;;2.15;;
34767;SDS011;21755;43.608;1.236;2023-07-20T08:01:48;5.78;;;2.03;;
34767;SDS011;21755;43.608;1.236;2023-07-20T08:04:13;5.07;;;2.30;;
34767;SDS011;21755;43.608;1.236;2023-07-20T08:06:39;4.30;;;1.90;;
34767;SDS011;21755;43.608;1.236;2023-07-20T08:09:05;6.40;;;1.90;;
34767;SDS011;21755;43.608;1.236;2023-07-20T08:11:31;8.85;;;2.38;;
34767;SDS011;21755;43.608;1.236;2023-07-20T08:14:01;4.10;;;2.17;;
34767;SDS011;21755;43.608;1.236;2023-07-20T08:16:27;3.28;;;1.83;;
34767;SDS011;21755;43.608;1.236;2023-07-20T08:18:53;5.10;;;1.70;;
34767;SDS011;21755;43.608;1.236;2023-07-20T08:21:19;4.40;;;1.88;;
34767;SDS011;21755;43.608;1.236;2023-07-20T08:23:45;5.07;;;2.08;;
34767;SDS011;21755;43.608;1.236;2023-07-20T08:26:11;3.80;;;1.60;;
34767;SDS011;21755;43.608;1.236;2023-07-20T08:28:37;6.53;;;1.80;;
34767;SDS011;21755;43.608;1.236;2023-07-20T08:31:05;6.18;;;1.60;;
34767;SDS011;21755;43.608;1.236;2023-07-20T08:33:32;3.90;;;2.03;;
34767;SDS011;21755;43.608;1.236;2023-07-20T08:35:59;4.43;;;1.63;;
34767;SDS011;21755;43.608;1.236;2023-07-20T08:38:26;3.92;;;1.67;;
34767;SDS011;21755;43.608;1.236;2023-07-20T08:40:53;4.75;;;1.70;;
34767;SDS011;21755;43.608;1.236;2023-07-20T08:43:20;5.40;;;1.75;;
34767;SDS011;21755;43.608;1.236;2023-07-20T08:45:51;8.43;;;1.92;;
34767;SDS011;21755;43.608;1.236;2023-07-20T08:48:21;2.95;;;1.88;;
34767;SDS011;21755;43.608;1.236;2023-07-20T08:50:51;1.90;;;1.60;;
34767;SDS011;21755;43.608;1.236;2023-07-20T08:53:20;2.65;;;1.63;;
34767;SDS011;21755;43.608;1.236;2023-07-20T08:55:46;7.28;;;2.03;;
34767;SDS011;21755;43.608;1.236;2023-07-20T08:58:15;3.25;;;1.77;;
34767;SDS011;21755;43.608;1.236;2023-07-20T09:00:42;6.68;;;1.95;;
34767;SDS011;21755;43.608;1.236;2023-07-20T09:03:08;6.38;;;2.00;;
34767;SDS011;21755;43.608;1.236;2023-07-20T09:05:35;3.97;;;1.73;;
34767;SDS011;21755;43.608;1.236;2023-07-20T09:08:01;4.05;;;1.70;;
34767;SDS011;21755;43.608;1.236;2023-07-20T09:10:30;3.65;;;1.63;;
34767;SDS011;21755;43.608;1.236;2023-07-20T09:12:56;4.95;;;1.73;;
34767;SDS011;21755;43.608;1.236;2023-07-20T09:15:22;4.13;;;1.70;;
34767;SDS011;21755;43.608;1.236;2023-07-20T09:17:49;5.15;;;2.10;;
34767;SDS011;21755;43.608;1.236;2023-07-20T09:20:16;8.55;;;2.50;;
34767;SDS011;21755;43.608;1.236;2023-07-20T09:22:43;4.88;;;1.67;;
34767;SDS011;21755;43.608;1.236;2023-07-20T09:25:16;8.68;;;1.80;;
34767;SDS011;21755;43.608;1.236;2023-07-20T09:27:45;4.93;;;1.80;;
34767;SDS011;21755;43.608;1.236;2023-07-20T09:30:13;9.15;;;2.05;;
34767;SDS011;21755;43.608;1.236;2023-07-20T09:32:45;3.42;;;1.70;;
34767;SDS011;21755;43.608;1.236;2023-07-20T09:35:16;6.07;;;1.83;;
34767;SDS011;21755;43.608;1.236;2023-07-20T09:37:50;6.95;;;1.75;;
34767;SDS011;21755;43.608;1.236;2023-07-20T09:40:22;5.40;;;1.70;;
34767;SDS011;21755;43.608;1.236;2023-07-20T09:42:49;3.63;;;1.83;;
34767;SDS011;21755;43.608;1.236;2023-07-20T09:45:18;5.07;;;1.48;;
34767;SDS011;21755;43.608;1.236;2023-07-20T09:47:45;2.75;;;1.63;;
34767;SDS011;21755;43.608;1.236;2023-07-20T09:50:11;1.75;;;1.60;;
34767;SDS011;21755;43.608;1.236;2023-07-20T09:52:40;4.55;;;1.95;;
34767;SDS011;21755;43.608;1.236;2023-07-20T09:55:09;6.53;;;2.05;;
34767;SDS011;21755;43.608;1.236;2023-07-20T09:57:36;4.18;;;1.88;;
34767;SDS011;21755;43.608;1.236;2023-07-20T10:00:03;4.50;;;2.10;;
34767;SDS011;21755;43.608;1.236;2023-07-20T10:02:40;3.42;;;1.73;;
34767;SDS011;21755;43.608;1.236;2023-07-20T10:05:11;5.55;;;1.92;;
34767;SDS011;21755;43.608;1.236;2023-07-20T10:07:40;2.35;;;1.55;;
34767;SDS011;21755;43.608;1.236;2023-07-20T10:10:10;4.80;;;2.13;;
34767;SDS011;21755;43.608;1.236;2023-07-20T10:12:39;8.57;;;2.08;;
34767;SDS011;21755;43.608;1.236;2023-07-20T10:15:18;4.82;;;2.00;;
34767;SDS011;21755;43.608;1.236;2023-07-20T10:17:49;2.15;;;1.65;;
34767;SDS011;21755;43.608;1.236;2023-07-20T10:20:28;4.13;;;1.60;;
34767;SDS011;21755;43.608;1.236;2023-07-20T10:22:57;4.10;;;1.70;;
34767;SDS011;21755;43.608;1.236;2023-07-20T10:25:23;4.13;;;1.80;;
34767;SDS011;21755;43.608;1.236;2023-07-20T10:27:50;2.92;;;1.90;;
34767;SDS011;21755;43.608;1.236;2023-07-20T10:30:16;5.63;;;1.75;;
34767;SDS011;21755;43.608;1.236;2023-07-20T10:32:44;3.78;;;1.40;;
34767;SDS011;21755;43.608;1.236;2023-07-20T10:35:14;2.35;;;1.80;;
34767;SDS011;21755;43.608;1.236;2023-07-20T10:37:48;4.57;;;1.45;;
34767;SDS011;21755;43.608;1.236;2023-07-20T10:42:58;3.47;;;1.83;;
34767;SDS011;21755;43.608;1.236;2023-07-20T10:45:41;3.15;;;1.58;;
34767;SDS011;21755;43.608;1.236;2023-07-20T10:48:33;3.75;;;1.92;;
34767;SDS011;21755;43.608;1.236;2023-07-20T10:51:09;2.03;;;1.45;;
34767;SDS011;21755;43.608;1.236;2023-07-20T10:53:45;5.68;;;1.55;;
34767;SDS011;21755;43.608;1.236;2023-07-20T10:56:15;3.85;;;1.50;;
34767;SDS011;21755;43.608;1.236;2023-07-20T10:58:45;4.75;;;1.60;;
34767;SDS011;21755;43.608;1.236;2023-07-20T11:01:15;2.75;;;1.85;;
34767;SDS011;21755;43.608;1.236;2023-07-20T11:03:42;2.58;;;1.83;;
34767;SDS011;21755;43.608;1.236;2023-07-20T11:08:57;3.78;;;1.23;;
34767;SDS011;21755;43.608;1.236;2023-07-20T11:11:31;2.70;;;1.42;;
34767;SDS011;21755;43.608;1.236;2023-07-20T11:16:41;7.65;;;2.63;;
34767;SDS011;21755;43.608;1.236;2023-07-20T11:19:21;2.58;;;1.92;;
34767;SDS011;21755;43.608;1.236;2023-07-20T11:21:52;3.13;;;1.63;;
34767;SDS011;21755;43.608;1.236;2023-07-20T11:24:20;2.30;;;1.30;;
34767;SDS011;21755;43.608;1.236;2023-07-20T11:26:50;4.00;;;1.60;;
34767;SDS011;21755;43.608;1.236;2023-07-20T11:29:22;5.10;;;1.48;;
34767;SDS011;21755;43.608;1.236;2023-07-20T11:31:50;2.15;;;1.50;;
34767;SDS011;21755;43.608;1.236;2023-07-20T11:34:17;3.03;;;1.48;;
34767;SDS011;21755;43.608;1.236;2023-07-20T11:36:45;3.95;;;1.83;;
34767;SDS011;21755;43.608;1.236;2023-07-20T11:39:15;6.05;;;1.77;;
34767;SDS011;21755;43.608;1.236;2023-07-20T11:41:50;4.25;;;1.80;;
34767;SDS011;21755;43.608;1.236;2023-07-20T11:44:23;3.15;;;1.85;;
34767;SDS011;21755;43.608;1.236;2023-07-20T11:47:08;6.60;;;1.88;;
34767;SDS011;21755;43.608;1.236;2023-07-20T11:49:38;2.58;;;1.50;;
34767;SDS011;21755;43.608;1.236;2023-07-20T11:52:11;7.40;;;1.92;;
34767;SDS011;21755;43.608;1.236;2023-07-20T11:54:40;3.85;;;1.80;;
34767;SDS011;21755;43.608;1.236;2023-07-20T11:57:07;5.25;;;2.08;;
34767;SDS011;21755;43.608;1.236;2023-07-20T11:59:52;5.10;;;1.95;;
34767;SDS011;21755;43.608;1.236;2023-07-20T12:02:29;2.33;;;1.70;;
34767;SDS011;21755;43.608;1.236;2023-07-20T12:04:55;4.05;;;2.13;;
34767;SDS011;21755;43.608;1.236;2023-07-20T12:07:22;2.10;;;1.60;;
34767;SDS011;21755;43.608;1.236;2023-07-20T12:10:06;4.32;;;1.88;;
34767;SDS011;21755;43.608;1.236;2023-07-20T12:12:33;5.95;;;1.95;;
34767;SDS011;21755;43.608;1.236;2023-07-20T12:15:21;4.10;;;2.05;;
34767;SDS011;21755;43.608;1.236;2023-07-20T12:18:01;5.13;;;1.90;;
34767;SDS011;21755;43.608;1.236;2023-07-20T12:20:29;4.93;;;2.17;;
34767;SDS011;21755;43.608;1.236;2023-07-20T12:22:56;4.80;;;2.40;;
34767;SDS011;21755;43.608;1.236;2023-07-20T12:25:33;2.35;;;2.00;;
34767;SDS011;21755;43.608;1.236;2023-07-20T12:28:12;3.08;;;2.20;;
34767;SDS011;21755;43.608;1.236;2023-07-20T12:30:40;4.18;;;2.10;;
34767;SDS011;21755;43.608;1.236;2023-07-20T12:33:07;6.18;;;1.75;;
34767;SDS011;21755;43.608;1.236;2023-07-20T12:35:33;3.90;;;2.15;;
34767;SDS011;21755;43.608;1.236;2023-07-20T12:37:59;3.20;;;1.83;;
34767;SDS011;21755;43.608;1.236;2023-07-20T12:40:26;4.65;;;1.98;;
34767;SDS011;21755;43.608;1.236;2023-07-20T12:42:52;2.92;;;2.03;;
34767;SDS011;21755;43.608;1.236;2023-07-20T12:45:18;6.22;;;1.60;;
34767;SDS011;21755;43.608;1.236;2023-07-20T12:47:44;6.40;;;1.85;;
34767;SDS011;21755;43.608;1.236;2023-07-20T12:50:10;2.85;;;1.70;;
34767;SDS011;21755;43.608;1.236;2023-07-20T12:52:37;3.45;;;2.00;;
34767;SDS011;21755;43.608;1.236;2023-07-20T12:55:04;6.90;;;1.77;;
34767;SDS011;21755;43.608;1.236;2023-07-20T12:57:31;3.22;;;1.73;;
34767;SDS011;21755;43.608;1.236;2023-07-20T12:59:58;2.28;;;1.63;;
34767;SDS011;21755;43.608;1.236;2023-07-20T13:02:24;3.65;;;1.80;;
34767;SDS011;21755;43.608;1.236;2023-07-20T13:04:50;4.43;;;2.20;;
34767;SDS011;21755;43.608;1.236;2023-07-20T13:07:16;4.32;;;2.10;;
34767;SDS011;21755;43.608;1.236;2023-07-20T13:09:54;6.53;;;1.88;;
34767;SDS011;21755;43.608;1.236;2023-07-20T13:12:19;4.32;;;1.90;;
34767;SDS011;21755;43.608;1.236;2023-07-20T13:14:45;2.97;;;2.22;;
34767;SDS011;21755;43.608;1.236;2023-07-20T13:17:11;11.25;;;2.20;;
34767;SDS011;21755;43.608;1.236;2023-07-20T13:19:37;3.13;;;1.83;;
34767;SDS011;21755;43.608;1.236;2023-07-20T13:22:03;4.50;;;1.67;;
34767;SDS011;21755;43.608;1.236;2023-07-20T13:24:29;5.72;;;2.10;;
34767;SDS011;21755;43.608;1.236;2023-07-20T13:26:55;4.10;;;2.25;;
34767;SDS011;21755;43.608;1.236;2023-07-20T13:29:21;3.83;;;2.00;;
34767;SDS011;21755;43.608;1.236;2023-07-20T13:31:47;6.88;;;2.05;;
34767;SDS011;21755;43.608;1.236;2023-07-20T13:34:13;4.70;;;1.90;;
34767;SDS011;21755;43.608;1.236;2023-07-20T13:36:39;3.03;;;2.00;;
34767;SDS011;21755;43.608;1.236;2023-07-20T13:39:05;2.28;;;1.70;;
34767;SDS011;21755;43.608;1.236;2023-07-20T13:41:32;2.78;;;2.00;;
34767;SDS011;21755;43.608;1.236;2023-07-20T13:43:59;2.88;;;1.92;;
34767;SDS011;21755;43.608;1.236;2023-07-20T13:46:25;4.60;;;2.40;;
34767;SDS011;21755;43.608;1.236;2023-07-20T13:48:51;4.80;;;2.50;;
34767;SDS011;21755;43.608;1.236;2023-07-20T13:51:17;4.18;;;2.05;;
34767;SDS011;21755;43.608;1.236;2023-07-20T13:53:45;2.80;;;2.22;;
34767;SDS011;21755;43.608;1.236;2023-07-20T13:56:13;5.32;;;2.08;;
34767;SDS011;21755;43.608;1.236;2023-07-20T13:58:39;4.05;;;2.25;;
34767;SDS011;21755;43.608;1.236;2023-07-20T14:01:05;3.05;;;2.22;;
34767;SDS011;21755;43.608;1.236;2023-07-20T14:03:31;3.53;;;2.33;;
34767;SDS011;21755;43.608;1.236;2023-07-20T14:05:57;3.97;;;2.30;;
34767;SDS011;21755;43.608;1.236;2023-07-20T14:08:22;2.97;;;2.25;;
34767;SDS011;21755;43.608;1.236;2023-07-20T14:10:48;3.92;;;2.38;;
34767;SDS011;21755;43.608;1.236;2023-07-20T14:13:14;5.95;;;2.22;;
34767;SDS011;21755;43.608;1.236;2023-07-20T14:15:40;4.22;;;2.33;;
34767;SDS011;21755;43.608;1.236;2023-07-20T14:18:06;4.30;;;2.33;;
34767;SDS011;21755;43.608;1.236;2023-07-20T14:20:32;4.40;;;3.05;;
34767;SDS011;21755;43.608;1.236;2023-07-20T14:22:58;2.97;;;2.15;;
34767;SDS011;21755;43.608;1.236;2023-07-20T14:25:24;4.55;;;2.38;;
34767;SDS011;21755;43.608;1.236;2023-07-20T14:27:50;6.63;;;2.78;;
34767;SDS011;21755;43.608;1.236;2023-07-20T14:30:16;5.32;;;2.20;;
34767;SDS011;21755;43.608;1.236;2023-07-20T14:32:43;6.53;;;1.98;;
34767;SDS011;21755;43.608;1.236;2023-07-20T14:35:09;4.82;;;2.75;;
34767;SDS011;21755;43.608;1.236;2023-07-20T14:37:34;5.97;;;2.30;;
34767;SDS011;21755;43.608;1.236;2023-07-20T14:40:00;6.63;;;2.35;;
34767;SDS011;21755;43.608;1.236;2023-07-20T14:42:30;4.05;;;1.90;;
34767;SDS011;21755;43.608;1.236;2023-07-20T14:44:57;4.22;;;2.72;;
34767;SDS011;21755;43.608;1.236;2023-07-20T14:47:23;4.53;;;2.58;;
34767;SDS011;21755;43.608;1.236;2023-07-20T14:49:49;3.47;;;2.30;;
34767;SDS011;21755;43.608;1.236;2023-07-20T14:52:15;3.80;;;2.40;;
34767;SDS011;21755;43.608;1.236;2023-07-20T14:54:42;4.95;;;1.95;;
34767;SDS011;21755;43.608;1.236;2023-07-20T14:57:08;4.90;;;2.38;;
34767;SDS011;21755;43.608;1.236;2023-07-20T14:59:39;6.07;;;2.55;;
34767;SDS011;21755;43.608;1.236;2023-07-20T15:02:09;4.10;;;2.40;;
34767;SDS011;21755;43.608;1.236;2023-07-20T15:04:35;4.88;;;2.60;;
34767;SDS011;21755;43.608;1.236;2023-07-20T15:07:00;6.15;;;2.80;;